Time;durP1;ratioP1;P1;durP2;ratioP2;P2;SDS_P1;SDS_P2;PMS_P1;PMS_P2;Temp;Humidity;BMP_temperature;BMP_pressure;BME280_temperature;BME280_humidity;BME280_pressure;Samples;Min_cycle;Max_cycle;Signal;HPM_P1;HPM_P2
2021/03/27 00:00:27;;;;;;;86.90;57.73;;;;;;;6.86;69.62;99728.94;1749260;80;20320;-72
2021/03/27 00:03:03;;;;;;;90.57;55.15;;;;;;;6.80;69.65;99727.81;1730367;81;21078;-72
2021/03/27 00:05:41;;;;;;;82.82;56.00;;;;;;;6.77;69.71;99723.17;1742088;81;21199;-73
2021/03/27 00:08:19;;;;;;;83.85;54.40;;;;;;;6.73;69.77;99717.24;1734413;81;21018;-72
2021/03/27 00:10:57;;;;;;;93.25;59.18;;;;;;;6.72;69.82;99718.12;1751452;80;21132;-71
2021/03/27 00:13:58;;;;;;;87.97;57.98;;;;;;;6.68;69.77;99706.99;1761324;80;21396;-70
2021/03/27 00:16:47;;;;;;;89.22;56.63;;;;;;;6.69;69.89;99705.24;1761613;80;21267;-70
2021/03/27 00:19:28;;;;;;;88.42;58.60;;;;;;;6.66;69.87;99700.16;1758188;80;21208;-71
2021/03/27 00:22:00;;;;;;;87.92;57.35;;;;;;;6.57;69.76;99692.67;1759840;80;21223;-70
2021/03/27 00:25:06;;;;;;;90.77;58.50;;;;;;;6.47;69.87;99687.77;1736930;81;21183;-70
2021/03/27 00:27:56;;;;;;;94.80;60.83;;;;;;;6.40;69.91;99691.44;1758950;80;21153;-71
2021/03/27 00:30:29;;;;;;;92.97;58.17;;;;;;;6.33;70.00;99695.13;1758698;79;21219;-71
2021/03/27 00:32:59;;;;;;;87.27;58.85;;;;;;;6.29;70.11;99685.73;1761938;80;21266;-72
2021/03/27 00:35:37;;;;;;;85.95;56.92;;;;;;;6.28;70.17;99687.94;1737819;81;21244;-71
2021/03/27 00:38:14;;;;;;;81.35;55.43;;;;;;;6.28;70.24;99685.34;1738669;81;21606;-72
2021/03/27 00:40:44;;;;;;;;;;;;;;;6.31;70.34;99673.58;1739433;81;21606;-72
2021/03/27 00:43:17;;;;;;;89.65;54.63;;;;;;;6.34;70.49;99673.48;1739336;80;20553;-72
2021/03/27 00:45:48;;;;;;;85.20;55.38;;;;;;;6.38;70.52;99661.26;1730371;81;21405;-72
2021/03/27 00:48:23;;;;;;;82.27;54.63;;;;;;;6.43;70.62;99660.22;1737698;81;21665;-72
2021/03/27 00:51:01;;;;;;;82.85;54.88;;;;;;;6.50;70.62;99657.84;1757798;80;21182;-72
2021/03/27 00:53:36;;;;;;;78.12;51.75;;;;;;;6.56;70.59;99654.66;1763155;80;21142;-72
2021/03/27 00:56:23;;;;;;;80.72;53.50;;;;;;;6.61;70.75;99655.34;1738498;80;21095;-72
2021/03/27 00:58:59;;;;;;;89.13;53.58;;;;;;;6.69;70.71;99648.16;1766013;80;21262;-76
2021/03/27 01:01:31;;;;;;;81.70;51.80;;;;;;;6.73;70.68;99649.77;1749028;80;21176;-71
2021/03/27 01:04:02;;;;;;;82.35;52.85;;;;;;;6.77;70.72;99648.77;1755908;80;21406;-73
2021/03/27 01:06:46;;;;;;;79.58;51.42;;;;;;;6.80;70.71;99645.22;1756640;80;21157;-72
2021/03/27 01:09:17;;;;;;;88.17;51.58;;;;;;;6.84;70.74;99637.30;1760122;80;21037;-72
2021/03/27 01:11:52;;;;;;;74.40;49.93;;;;;;;6.85;70.72;99632.48;1761853;80;22140;-73
2021/03/27 01:14:25;;;;;;;79.75;50.88;;;;;;;6.88;70.78;99628.49;1755670;80;21550;-73
2021/03/27 01:16:58;;;;;;;82.40;54.23;;;;;;;6.92;70.80;99631.40;1761919;80;21131;-72
2021/03/27 01:19:37;;;;;;;78.33;51.15;;;;;;;6.97;70.79;99623.89;1738965;81;21202;-72
2021/03/27 01:22:08;;;;;;;84.13;53.28;;;;;;;6.98;70.80;99621.26;1732557;81;21173;-71
2021/03/27 01:24:36;;;;;;;82.82;52.67;;;;;;;7.00;70.78;99612.10;1736150;81;22643;-72
2021/03/27 01:27:14;;;;;;;83.60;53.28;;;;;;;7.00;70.89;99612.97;1742905;80;22381;-72
2021/03/27 01:29:53;;;;;;;76.67;51.63;;;;;;;7.02;70.92;99602.52;1736530;81;21250;-71
2021/03/27 01:32:42;;;;;;;80.03;52.60;;;;;;;7.04;70.95;99607.22;1743523;81;21152;-72
2021/03/27 01:35:35;;;;;;;77.95;51.23;;;;;;;7.07;71.01;99604.52;1732946;81;21256;-72
2021/03/27 01:38:20;;;;;;;84.22;52.58;;;;;;;7.10;70.97;99599.21;1744125;81;21281;-72
2021/03/27 01:41:01;;;;;;;87.75;55.00;;;;;;;7.13;71.01;99601.70;1745964;81;21173;-73
2021/03/27 01:43:59;;;;;;;85.87;56.13;;;;;;;7.17;71.10;99598.95;1740623;81;21598;-73
2021/03/27 01:46:56;;;;;;;89.05;56.23;;;;;;;7.24;71.14;99586.58;1745442;80;21641;-72
2021/03/27 01:49:40;;;;;;;88.20;55.73;;;;;;;7.32;71.10;99580.66;1738557;81;21148;-73
2021/03/27 01:52:15;;;;;;;84.55;56.95;;;;;;;7.38;71.15;99579.14;1733209;81;21219;-73
2021/03/27 01:55:14;;;;;;;86.57;56.92;;;;;;;7.46;71.12;99572.83;1724925;81;21643;-73
2021/03/27 01:58:04;;;;;;;83.92;55.50;;;;;;;7.50;71.08;99577.84;1726018;81;21233;-73
2021/03/27 02:00:40;;;;;;;95.32;57.98;;;;;;;7.57;71.14;99571.52;1724045;81;21944;-72
2021/03/27 02:03:30;;;;;;;84.05;54.13;;;;;;;7.63;71.04;99570.45;1730951;81;21151;-72
2021/03/27 02:06:21;;;;;;;91.82;57.33;;;;;;;7.66;71.09;99562.53;1723765;81;22382;-72
2021/03/27 02:09:27;;;;;;;84.00;55.08;;;;;;;7.72;71.04;99567.48;1740019;80;21167;-71
2021/03/27 02:12:05;;;;;;;89.83;55.50;;;;;;;7.77;71.01;99564.27;1748779;80;21085;-72
2021/03/27 02:14:58;;;;;;;94.22;57.00;;;;;;;7.78;70.95;99562.05;1719658;81;21192;-72
2021/03/27 02:17:48;;;;;;;92.05;58.02;;;;;;;7.80;70.98;99549.85;1729858;81;21259;-72
2021/03/27 02:20:53;;;;;;;90.53;59.20;;;;;;;7.82;70.95;99548.05;1741719;80;21418;-72
2021/03/27 02:24:06;;;;;;;88.75;55.85;;;;;;;7.82;70.96;99548.05;1684132;83;21252;-73
2021/03/27 02:26:39;;;;;;;91.28;57.62;;;;;;;7.82;70.89;99544.15;1696719;82;22275;-72
2021/03/27 02:30:08;;;;;;;86.75;57.00;;;;;;;7.86;70.85;99546.17;1820561;77;24488;-72
2021/03/27 02:33:09;;;;;;;87.78;57.27;;;;;;;7.78;70.78;99549.05;1797561;78;21754;-71
2021/03/27 02:35:58;;;;;;;88.40;56.70;;;;;;;7.73;70.81;99550.14;1788286;78;21131;-73
2021/03/27 02:38:46;;;;;;;89.32;56.55;;;;;;;7.67;70.79;99551.22;1793813;78;21072;-71
2021/03/27 02:41:51;;;;;;;81.55;55.70;;;;;;;7.59;70.79;99550.69;1785879;78;20984;-72
2021/03/27 02:44:51;;;;;;;85.10;57.83;;;;;;;7.51;70.73;99555.33;1735148;80;21260;-72
2021/03/27 02:47:50;;;;;;;81.35;55.30;;;;;;;7.38;70.71;99557.06;1731500;81;21035;-71
2021/03/27 02:50:50;;;;;;;79.32;54.33;;;;;;;7.27;70.74;99557.91;1732039;81;21718;-72
2021/03/27 02:53:25;;;;;;;81.97;55.52;;;;;;;7.16;70.78;99562.64;1731548;81;21203;-72
2021/03/27 02:56:09;;;;;;;88.42;55.78;;;;;;;7.06;70.94;99552.20;1705930;83;21308;-72
2021/03/27 02:59:15;;;;;;;83.52;53.40;;;;;;;6.98;70.99;99545.98;1675040;83;21297;-72
2021/03/27 03:02:10;;;;;;;82.82;55.83;;;;;;;6.92;70.96;99557.42;1826287;77;22533;-71
2021/03/27 03:04:43;;;;;;;;;;;;;;;6.77;70.94;99555.34;1802604;78;21072;-73
2021/03/27 03:07:28;;;;;;;87.00;55.03;;;;;;;6.68;71.02;99555.66;1794287;78;21271;-73
2021/03/27 03:10:20;;;;;;;85.10;56.60;;;;;;;6.56;70.98;99545.72;1796822;78;21211;-72
2021/03/27 03:13:07;;;;;;;91.50;57.30;;;;;;;6.45;71.14;99549.50;1799243;78;21668;-70
2021/03/27 03:16:18;;;;;;;88.82;56.28;;;;;;;6.38;71.17;99548.45;1799210;78;21720;-72
2021/03/27 03:19:05;;;;;;;93.27;56.23;;;;;;;6.29;71.20;99536.64;1802225;78;21029;-71
2021/03/27 03:21:37;;;;;;;88.58;58.40;;;;;;;6.19;71.14;99541.70;1762061;79;21295;-72
2021/03/27 03:24:19;;;;;;;82.92;54.65;;;;;;;6.10;71.30;99542.02;1757676;80;21115;-72
2021/03/27 03:27:11;;;;;;;85.53;55.65;;;;;;;6.02;71.35;99543.13;1738855;81;21129;-71
2021/03/27 03:30:04;;;;;;;79.58;50.98;;;;;;;5.98;71.45;99541.50;1739209;80;21258;-72
2021/03/27 03:32:46;;;;;;;89.72;56.80;;;;;;;5.91;71.56;99532.21;1736483;81;21208;-71
2021/03/27 03:35:41;;;;;;;86.32;55.70;;;;;;;5.88;71.67;99532.31;1735829;81;21365;-71
2021/03/27 03:38:30;;;;;;;89.17;54.50;;;;;;;5.87;71.57;99534.94;1734479;81;21244;-72
2021/03/27 03:41:34;;;;;;;87.92;56.15;;;;;;;5.78;71.60;99528.30;1763103;80;21151;-72
2021/03/27 03:44:26;;;;;;;95.50;56.60;;;;;;;5.73;71.62;99531.47;1758034;80;21124;-71
2021/03/27 03:47:20;;;;;;;83.33;55.05;;;;;;;5.64;71.73;99531.30;1755537;80;21083;-71
2021/03/27 03:50:17;;;;;;;83.52;53.73;;;;;;;5.58;71.73;99524.56;1759344;80;21303;-72
2021/03/27 03:53:14;;;;;;;84.17;56.55;;;;;;;5.52;71.89;99519.58;1766097;80;21262;-72
2021/03/27 03:56:18;;;;;;;87.12;57.67;;;;;;;5.51;72.07;99517.86;1757508;80;24471;-71
2021/03/27 03:59:25;;;;;;;93.27;55.95;;;;;;;5.55;72.20;99516.89;1730699;80;21215;-72
2021/03/27 04:02:03;;;;;;;90.90;56.37;;;;;;;5.60;72.28;99512.42;1731521;81;21139;-71
2021/03/27 04:04:41;;;;;;;91.10;57.62;;;;;;;5.66;72.29;99519.58;1710293;81;22194;-72
2021/03/27 04:07:42;;;;;;;86.10;60.70;;;;;;;5.74;72.34;99516.31;1787504;77;28140;-71
2021/03/27 04:10:18;;;;;;;91.37;58.13;;;;;;;5.78;72.23;99512.75;1772240;80;21038;-71
2021/03/27 04:12:58;;;;;;;82.30;54.67;;;;;;;5.84;72.32;99509.97;1768155;80;22276;-72
2021/03/27 04:15:52;;;;;;;93.40;57.80;;;;;;;5.85;72.38;99509.05;1771346;80;21063;-73
2021/03/27 04:18:46;;;;;;;84.35;55.05;;;;;;;5.90;72.46;99501.98;1766061;80;21026;-72
2021/03/27 04:21:34;;;;;;;85.50;56.40;;;;;;;5.92;72.39;99507.98;1763160;80;21204;-72
2021/03/27 04:24:14;;;;;;;89.92;56.65;;;;;;;5.93;72.42;99507.11;1765603;80;21108;-71
2021/03/27 04:27:07;;;;;;;86.37;55.55;;;;;;;5.95;72.53;99505.33;1770414;80;21065;-73
2021/03/27 04:29:42;;;;;;;85.40;56.90;;;;;;;5.96;72.54;99501.83;1766641;80;21005;-72
2021/03/27 04:32:49;;;;;;;89.80;54.70;;;;;;;5.98;72.57;99498.74;1763360;80;21635;-72
2021/03/27 04:35:47;;;;;;;82.75;52.90;;;;;;;6.00;72.57;99493.07;1766596;80;28330;-72
2021/03/27 04:38:34;;;;;;;90.53;55.80;;;;;;;6.04;72.63;99492.06;1769123;80;21176;-71
2021/03/27 04:41:18;;;;;;;88.25;57.55;;;;;;;6.05;72.60;99483.41;1766205;80;21267;-72
2021/03/27 04:44:02;;;;;;;80.47;54.75;;;;;;;6.10;72.65;99484.98;1703612;83;21187;-72
2021/03/27 04:46:43;;;;;;;78.42;53.35;;;;;;;6.13;72.67;99474.52;1705689;83;22256;-73
2021/03/27 04:49:49;;;;;;;86.05;53.68;;;;;;;6.17;72.66;99476.13;1731677;81;21178;-73
2021/03/27 04:52:30;;;;;;;83.97;53.80;;;;;;;6.23;72.72;99478.50;1701706;83;21171;-73
2021/03/27 04:55:14;;;;;;;82.57;53.95;;;;;;;6.40;72.74;99479.23;1704792;83;21622;-72
2021/03/27 04:57:50;;;;;;;78.80;50.70;;;;;;;6.54;72.72;99469.69;1714066;83;21109;-71
2021/03/27 05:00:34;;;;;;;80.28;52.25;;;;;;;6.72;72.69;99466.42;1731887;81;22027;-72
2021/03/27 05:03:15;;;;;;;87.00;55.40;;;;;;;6.88;72.57;99465.44;1734453;81;21728;-72
2021/03/27 05:06:00;;;;;;;77.32;50.15;;;;;;;7.05;72.48;99463.52;1717086;82;21618;-71
2021/03/27 05:08:41;;;;;;;77.00;51.50;;;;;;;7.20;72.38;99462.09;1735255;81;21738;-73
2021/03/27 05:11:37;;;;;;;81.32;53.55;;;;;;;7.35;72.27;99458.94;1721830;82;21167;-73
2021/03/27 05:14:13;;;;;;;79.65;52.55;;;;;;;7.47;72.16;99462.34;1715062;82;21207;-73
2021/03/27 05:16:45;;;;;;;81.25;53.15;;;;;;;7.44;71.92;99461.17;1721080;82;21653;-73
2021/03/27 05:19:29;;;;;;;80.47;52.55;;;;;;;7.30;71.94;99460.86;1715642;82;21199;-72
2021/03/27 05:22:07;;;;;;;82.02;53.25;;;;;;;7.16;72.04;99451.83;1721871;82;21218;-72
2021/03/27 05:24:59;;;;;;;82.70;52.20;;;;;;;7.06;72.10;99457.45;1722152;82;21251;-72
2021/03/27 05:27:38;;;;;;;81.22;52.78;;;;;;;6.93;72.19;99451.39;1721720;82;21206;-72
2021/03/27 05:30:13;;;;;;;80.87;51.37;;;;;;;6.86;72.24;99460.74;1723663;82;21169;-72
2021/03/27 05:33:06;;;;;;;74.65;51.28;;;;;;;6.85;72.34;99452.12;1719994;82;21619;-72
2021/03/27 05:35:59;;;;;;;79.90;53.25;;;;;;;6.90;72.36;99455.86;1733408;81;21348;-72
2021/03/27 05:38:51;;;;;;;74.67;51.68;;;;;;;6.89;72.26;99442.03;1716432;82;21218;-72
2021/03/27 05:41:45;;;;;;;79.47;52.53;;;;;;;6.93;72.26;99449.25;1711620;82;21195;-72
2021/03/27 05:44:20;;;;;;;72.58;51.20;;;;;;;6.99;72.32;99442.98;1635416;85;21231;-71
2021/03/27 05:47:08;;;;;;;78.72;51.13;;;;;;;7.12;72.46;99441.63;1628789;85;21188;-72
2021/03/27 05:49:49;;;;;;;72.30;49.03;;;;;;;7.47;72.50;99439.42;1631710;87;22641;-72
2021/03/27 05:52:53;;;;;;;70.70;48.00;;;;;;;8.05;72.26;99437.09;1837072;77;22729;-71
2021/03/27 05:55:46;;;;;;;68.37;48.30;;;;;;;8.44;72.15;99432.45;1804783;77;21002;-73
2021/03/27 05:58:31;;;;;;;71.95;49.60;;;;;;;8.85;71.62;99442.78;1741396;81;22175;-72
2021/03/27 06:01:15;;;;;;;71.85;49.53;;;;;;;9.27;71.68;99428.30;1738659;81;21184;-72
2021/03/27 06:04:05;;;;;;;75.62;50.73;;;;;;;9.66;71.24;99436.88;1742865;81;21096;-72
2021/03/27 06:06:49;;;;;;;59.77;41.33;;;;;;;9.98;71.04;99430.95;1743535;80;21045;-72
2021/03/27 06:09:54;;;;;;;54.77;42.15;;;;;;;10.32;70.65;99431.06;1747089;81;21024;-72
2021/03/27 06:13:03;;;;;;;59.48;43.20;;;;;;;10.60;70.42;99430.49;1703506;82;22217;-72
2021/03/27 06:16:12;;;;;;;59.48;42.93;;;;;;;10.72;70.21;99427.23;1670521;84;21241;-73
2021/03/27 06:19:11;;;;;;;60.12;43.48;;;;;;;10.97;69.71;99412.41;1707506;82;21066;-73
2021/03/27 06:22:15;;;;;;;55.28;43.60;;;;;;;10.97;69.71;99412.41;1697704;82;21259;-73
2021/03/27 06:25:20;;;;;;;53.65;41.85;;;;;;;11.10;69.43;99409.52;1670257;83;21179;-73
2021/03/27 06:27:55;;;;;;;56.58;42.58;;;;;;;11.35;69.73;99405.56;1717618;82;22286;-72
2021/03/27 06:30:37;;;;;;;62.90;44.73;;;;;;;11.45;68.77;99400.66;1718441;82;21279;-73
2021/03/27 06:33:21;;;;;;;57.78;44.45;;;;;;;11.49;68.73;99391.73;1645681;85;21258;-73
2021/03/27 06:36:02;;;;;;;58.08;44.27;;;;;;;11.57;68.70;99396.06;1643088;86;21227;-73
2021/03/27 06:39:04;;;;;;;61.85;44.53;;;;;;;11.65;68.49;99388.63;1640413;86;21190;-73
2021/03/27 06:41:57;;;;;;;62.30;44.48;;;;;;;11.68;68.42;99388.89;1643849;85;21245;-73
2021/03/27 06:44:51;;;;;;;63.70;44.60;;;;;;;11.65;68.01;99387.33;1642988;85;21109;-74
2021/03/27 06:47:45;;;;;;;56.20;42.65;;;;;;;11.61;68.02;99389.72;1650938;84;21262;-74
2021/03/27 06:51:01;;;;;;;58.87;43.98;;;;;;;11.65;67.92;99386.85;1647461;85;21567;-74
2021/03/27 06:54:09;;;;;;;55.28;42.55;;;;;;;11.77;67.90;99389.22;1646966;85;21199;-73
2021/03/27 06:56:58;;;;;;;59.95;43.92;;;;;;;11.85;67.59;99381.81;1641486;85;21658;-74
2021/03/27 07:00:22;;;;;;;57.48;42.40;;;;;;;11.87;67.32;99376.47;1648444;85;21272;-73
2021/03/27 07:03:33;;;;;;;72.53;42.40;;;;;;;11.95;67.06;99370.80;1823774;77;22674;-73
2021/03/27 07:06:35;;;;;;;54.40;40.43;;;;;;;11.91;67.28;99381.92;1793508;78;21026;-74
2021/03/27 07:09:58;;;;;;;69.70;43.90;;;;;;;12.02;66.99;99377.38;1799105;78;21257;-74
2021/03/27 07:13:00;;;;;;;132.80;93.65;;;;;;;12.01;66.60;99371.27;1798228;78;21018;-73
2021/03/27 07:16:04;;;;;;;86.32;63.00;;;;;;;11.92;66.72;99378.36;1795150;78;21032;-73
2021/03/27 07:19:14;;;;;;;67.67;52.35;;;;;;;11.82;66.64;99371.50;1801077;78;21592;-73
2021/03/27 07:25:36;;;;;;;62.80;46.42;;;;;;;11.68;66.59;99366.22;1646565;85;21294;-72
2021/03/27 07:28:45;;;;;;;61.65;44.05;;;;;;;11.54;66.56;99363.52;1647001;85;21732;-72
2021/03/27 07:31:35;;;;;;;64.25;44.35;;;;;;;11.51;66.52;99353.24;1650199;85;21198;-72
2021/03/27 07:34:11;;;;;;;56.58;40.65;;;;;;;11.49;66.46;99336.83;1647817;85;21221;-73
2021/03/27 07:40:36;;;;;;;61.80;42.15;;;;;;;11.64;66.44;99351.62;1601937;87;21234;-72
2021/03/27 07:43:17;;;;;;;60.20;40.25;;;;;;;11.66;66.37;99352.38;1583396;90;21289;-72
2021/03/27 07:46:16;;;;;;;46.85;36.90;;;;;;;11.63;66.76;99315.95;1583967;90;21331;-72
2021/03/27 07:49:18;;;;;;;51.92;36.25;;;;;;;12.01;66.30;99340.34;1563938;90;21289;-72
2021/03/27 07:52:13;;;;;;;49.15;35.25;;;;;;;11.96;65.58;99333.23;1586038;90;21263;-73
2021/03/27 07:55:35;;;;;;;53.20;37.05;;;;;;;12.00;65.68;99334.75;1893845;74;22460;-72
2021/03/27 07:58:22;;;;;;;57.23;35.60;;;;;;;12.05;65.75;99330.09;1851181;77;20981;-72
2021/03/27 08:00:57;;;;;;;52.10;33.25;;;;;;;12.23;65.54;99335.52;1851951;77;21218;-74
2021/03/27 08:03:49;;;;;;;48.95;33.65;;;;;;;12.26;65.09;99326.16;1849063;77;21594;-73
2021/03/27 08:06:51;;;;;;;60.10;37.38;;;;;;;12.28;65.19;99327.39;1853173;77;21028;-72
2021/03/27 08:09:55;;;;;;;46.48;31.60;;;;;;;12.30;65.03;99327.68;1786022;79;21025;-73
2021/03/27 08:12:58;;;;;;;55.38;34.25;;;;;;;12.18;64.58;99282.59;1784259;78;21042;-73
2021/03/27 08:16:08;;;;;;;45.45;31.85;;;;;;;12.40;64.89;99317.47;1811264;78;22157;-72
2021/03/27 08:19:00;;;;;;;51.48;33.83;;;;;;;12.53;64.71;99314.95;1813815;78;21075;-73
2021/03/27 08:22:07;;;;;;;55.52;34.23;;;;;;;12.60;64.71;99283.50;1785476;78;21163;-73
2021/03/27 08:25:02;;;;;;;44.05;29.25;;;;;;;12.79;64.67;99307.25;1780894;80;21092;-73
2021/03/27 08:27:52;;;;;;;44.58;30.27;;;;;;;12.78;64.23;99297.72;1789949;77;21680;-73
2021/03/27 08:30:57;;;;;;;47.05;30.57;;;;;;;12.89;64.10;99293.95;1777065;79;21225;-73
2021/03/27 08:34:04;;;;;;;52.75;31.77;;;;;;;13.01;63.96;99302.33;1789263;79;21249;-72
2021/03/27 08:37:05;;;;;;;45.05;30.35;;;;;;;13.16;63.99;99296.12;1774335;80;21549;-73
2021/03/27 08:39:59;;;;;;;44.80;29.55;;;;;;;13.28;63.78;99299.75;1784107;80;21152;-72
2021/03/27 08:43:17;;;;;;;47.88;29.77;;;;;;;13.37;63.29;99290.44;1779575;79;21078;-72
2021/03/27 08:46:25;;;;;;;43.23;29.23;;;;;;;13.37;63.28;99291.75;1779137;79;22002;-72
2021/03/27 08:49:16;;;;;;;42.55;29.18;;;;;;;13.44;63.33;99291.70;1785781;79;21139;-72
2021/03/27 08:52:30;;;;;;;41.58;29.90;;;;;;;13.49;62.93;99284.37;1780848;79;21189;-73
2021/03/27 08:55:43;;;;;;;48.63;28.75;;;;;;;13.53;63.00;99288.48;1784443;79;21046;-73
2021/03/27 08:58:33;;;;;;;53.00;29.98;;;;;;;13.52;62.78;99292.03;1781094;78;21130;-73
2021/03/27 09:01:08;;;;;;;43.52;30.40;;;;;;;13.64;62.94;99283.84;1782624;78;21197;-73
2021/03/27 09:04:13;;;;;;;44.55;28.90;;;;;;;13.83;62.48;99270.30;1813126;78;21027;-73
2021/03/27 09:07:07;;;;;;;43.55;30.60;;;;;;;13.87;62.24;99271.31;1817870;78;20968;-73
2021/03/27 09:10:03;;;;;;;45.00;30.92;;;;;;;13.95;62.17;99264.23;1779767;79;21265;-73
2021/03/27 09:13:27;;;;;;;40.75;28.42;;;;;;;13.99;61.63;99262.23;1746975;80;21589;-74
2021/03/27 09:16:36;;;;;;;41.30;29.12;;;;;;;14.09;62.20;99256.25;1744137;80;21311;-74
2021/03/27 09:19:44;;;;;;;41.30;29.05;;;;;;;14.25;61.17;99251.23;1822115;77;22371;-73
2021/03/27 09:22:47;;;;;;;38.55;28.62;;;;;;;14.28;61.81;99254.95;1806110;78;21539;-74
2021/03/27 09:25:37;;;;;;;40.35;25.15;;;;;;;14.39;61.47;99251.10;1800761;78;21199;-74
2021/03/27 09:28:29;;;;;;;89.77;28.95;;;;;;;14.37;60.83;99242.52;1797516;78;21125;-71
2021/03/27 09:31:36;;;;;;;48.60;26.80;;;;;;;14.46;60.86;99239.23;1801101;78;21563;-74
2021/03/27 09:34:26;;;;;;;51.85;27.10;;;;;;;14.55;60.61;99235.13;1798836;78;21017;-74
2021/03/27 09:37:07;;;;;;;45.40;25.85;;;;;;;14.61;60.41;99229.44;1799252;78;21642;-73
2021/03/27 09:39:51;;;;;;;31.30;22.27;;;;;;;14.66;60.24;99226.48;1808213;78;21073;-73
2021/03/27 09:42:52;;;;;;;37.55;24.00;;;;;;;14.72;59.31;99219.47;1778520;78;21123;-72
2021/03/27 09:45:31;;;;;;;39.65;25.55;;;;;;;14.70;59.92;99219.59;1765076;80;21052;-73
2021/03/27 09:48:27;;;;;;;46.80;23.12;;;;;;;14.77;60.25;99222.61;1762237;80;21241;-72
2021/03/27 09:51:22;;;;;;;40.65;22.80;;;;;;;14.85;58.62;99208.44;1827522;77;22857;-71
2021/03/27 09:54:16;;;;;;;34.48;22.00;;;;;;;14.85;59.21;99213.70;1800607;78;21640;-72
2021/03/27 09:57:03;;;;;;;35.83;22.58;;;;;;;14.94;59.19;99210.38;1803816;78;21411;-72
2021/03/27 09:59:46;;;;;;;36.15;23.15;;;;;;;14.99;58.58;99208.74;1796070;78;21648;-72
2021/03/27 10:02:25;;;;;;;35.45;22.75;;;;;;;15.05;58.96;99200.87;1763818;78;21200;-72
2021/03/27 10:05:34;;;;;;;34.10;21.42;;;;;;;15.18;59.07;99206.43;1793995;78;21029;-73
2021/03/27 10:08:24;;;;;;;32.73;22.07;;;;;;;15.34;58.52;99200.01;1795358;78;21048;-72
2021/03/27 10:11:04;;;;;;;33.38;23.20;;;;;;;15.45;58.44;99199.55;1799736;78;21356;-71
2021/03/27 10:14:11;;;;;;;31.55;22.58;;;;;;;15.62;58.04;99204.84;1798460;78;21083;-73
2021/03/27 10:16:40;;;;;;;;;;;;;;;15.70;58.21;99197.72;1798063;78;21021;-72
2021/03/27 10:19:22;;;;;;;31.75;19.77;;;;;;;15.73;57.48;99196.16;1797544;78;20306;-73
2021/03/27 10:22:14;;;;;;;34.35;23.45;;;;;;;15.76;57.43;99191.98;1794967;78;21155;-72
2021/03/27 10:25:01;;;;;;;31.55;21.60;;;;;;;15.80;57.29;99193.44;1793559;78;21615;-73
2021/03/27 10:27:57;;;;;;;31.17;19.75;;;;;;;15.86;56.93;99185.06;1800016;78;21586;-74
2021/03/27 10:30:35;;;;;;;36.88;21.70;;;;;;;15.95;56.83;99186.13;1795263;78;21821;-72
2021/03/27 10:33:29;;;;;;;29.00;20.92;;;;;;;16.07;57.00;99184.33;1763480;80;21665;-73
2021/03/27 10:36:15;;;;;;;29.57;19.98;;;;;;;16.14;56.95;99178.95;1761421;79;21133;-72
2021/03/27 10:39:10;;;;;;;35.65;22.45;;;;;;;16.28;56.44;99180.50;1683161;83;23361;-72
2021/03/27 10:41:45;;;;;;;34.80;22.67;;;;;;;16.31;56.07;99170.55;1680846;83;21201;-74
2021/03/27 10:44:43;;;;;;;40.88;23.65;;;;;;;16.09;55.82;99170.58;1725957;81;22442;-75
2021/03/27 10:47:23;;;;;;;38.25;22.65;;;;;;;15.84;55.88;99179.06;1721355;81;21234;-74
2021/03/27 10:50:29;;;;;;;37.13;23.42;;;;;;;15.69;55.54;99177.63;1795044;78;22892;-73
2021/03/27 10:53:27;;;;;;;29.48;20.65;;;;;;;15.66;55.97;99169.95;1749274;80;20977;-73
2021/03/27 10:56:23;;;;;;;42.25;24.43;;;;;;;15.84;56.15;99172.48;1770024;80;21257;-75
2021/03/27 10:59:20;;;;;;;35.40;23.65;;;;;;;16.09;55.65;99166.14;1761690;79;21164;-73
2021/03/27 11:02:39;;;;;;;32.42;23.85;;;;;;;16.22;55.56;99167.33;1766044;80;21084;-72
2021/03/27 11:05:32;;;;;;;37.15;23.95;;;;;;;16.25;55.28;99163.13;1765848;80;20986;-74
2021/03/27 11:08:42;;;;;;;36.83;24.07;;;;;;;16.21;54.79;99165.64;1767748;79;21044;-75
2021/03/27 11:11:49;;;;;;;33.75;22.45;;;;;;;16.06;54.55;99161.59;1766576;79;21155;-74
2021/03/27 11:14:56;;;;;;;31.27;21.45;;;;;;;15.97;54.71;99162.33;1769145;79;21709;-75
2021/03/27 11:17:59;;;;;;;44.60;25.00;;;;;;;15.93;54.26;99149.03;1765976;79;21054;-73
2021/03/27 11:20:54;;;;;;;32.38;24.00;;;;;;;15.80;54.47;99161.02;1763735;80;21820;-74
2021/03/27 11:23:49;;;;;;;33.58;22.90;;;;;;;15.64;54.22;99163.95;1739241;79;21175;-73
2021/03/27 11:26:57;;;;;;;38.85;24.98;;;;;;;15.40;54.25;99154.81;1768474;79;21203;-71
2021/03/27 11:29:38;;;;;;;47.93;28.42;;;;;;;15.18;54.11;99170.09;1766936;80;21635;-72
2021/03/27 11:32:16;;;;;;;36.53;21.65;;;;;;;15.09;54.12;99164.19;1768792;79;21342;-72
2021/03/27 11:35:22;;;;;;;46.53;24.47;;;;;;;15.09;54.10;99157.13;1771624;80;21169;-72
2021/03/27 11:38:09;;;;;;;45.25;28.90;;;;;;;15.08;54.13;99161.20;1763675;79;21258;-72
2021/03/27 11:41:03;;;;;;;40.28;25.48;;;;;;;15.09;54.25;99154.98;1769037;80;21222;-72
2021/03/27 11:43:38;;;;;;;35.50;21.10;;;;;;;15.22;54.25;99163.64;1766921;80;21061;-73
2021/03/27 11:46:22;;;;;;;33.60;22.40;;;;;;;15.48;53.84;99154.24;1768516;80;21213;-73
2021/03/27 11:49:10;;;;;;;36.15;22.93;;;;;;;15.77;53.74;99144.98;1766716;80;21199;-72
2021/03/27 11:51:55;;;;;;;40.50;26.07;;;;;;;16.19;54.09;99151.78;1766725;80;21231;-72
2021/03/27 11:54:39;;;;;;;39.50;23.80;;;;;;;16.59;53.31;99150.37;1765414;79;22182;-72
2021/03/27 11:57:37;;;;;;;36.45;24.50;;;;;;;16.64;53.06;99154.30;1764961;80;21269;-72
2021/03/27 12:03:51;;;;;;;41.88;26.27;;;;;;;16.99;52.82;99150.59;1768714;78;21638;-72
2021/03/27 12:06:38;;;;;;;42.27;25.15;;;;;;;16.81;52.41;99152.95;1764940;80;21195;-72
2021/03/27 12:09:37;;;;;;;70.62;35.58;;;;;;;16.58;52.49;99160.08;1767964;80;22448;-73
2021/03/27 12:12:31;;;;;;;65.75;27.82;;;;;;;16.42;52.29;99151.73;1772619;80;21220;-73
2021/03/27 12:15:22;;;;;;;37.55;24.10;;;;;;;16.30;52.58;99160.98;1768054;80;21214;-72
2021/03/27 12:18:06;;;;;;;42.25;25.90;;;;;;;16.24;52.26;99159.30;1769012;79;21191;-73
2021/03/27 12:21:03;;;;;;;44.38;25.60;;;;;;;16.07;52.41;99173.80;1765810;79;21135;-73
2021/03/27 12:23:42;;;;;;;56.08;25.02;;;;;;;15.81;52.03;99160.88;1769740;80;21189;-73
2021/03/27 12:26:31;;;;;;;41.08;28.38;;;;;;;15.51;52.24;99165.84;1765561;79;21230;-72
2021/03/27 12:29:07;;;;;;;40.28;27.52;;;;;;;15.33;52.19;99162.83;1766182;79;20966;-73
2021/03/27 12:31:51;;;;;;;44.42;30.88;;;;;;;15.07;52.09;99168.72;1773712;80;21246;-73
2021/03/27 12:34:37;;;;;;;38.28;25.15;;;;;;;14.87;52.29;99177.63;1765988;80;21236;-73
2021/03/27 12:37:40;;;;;;;45.65;25.60;;;;;;;14.77;52.34;99179.25;1742256;80;21341;-73
2021/03/27 12:40:31;;;;;;;38.23;25.00;;;;;;;14.66;52.37;99181.82;1769850;79;21602;-73
2021/03/27 12:43:12;;;;;;;38.23;23.47;;;;;;;14.58;52.44;99194.67;1773570;79;21172;-73
2021/03/27 12:45:59;;;;;;;37.85;24.12;;;;;;;14.50;52.58;99200.44;1773699;79;20977;-73
2021/03/27 12:49:22;;;;;;;42.13;25.27;;;;;;;14.39;52.63;99201.20;1770335;80;21238;-72
2021/03/27 12:52:26;;;;;;;38.50;24.37;;;;;;;14.21;52.69;99199.89;1765853;80;21298;-72
2021/03/27 12:54:59;;;;;;;40.95;25.90;;;;;;;13.99;52.76;99204.02;1758400;80;21579;-72
2021/03/27 12:57:49;;;;;;;42.13;26.20;;;;;;;13.84;52.99;99201.16;1752746;79;21190;-73
2021/03/27 13:00:37;;;;;;;38.65;25.40;;;;;;;13.71;52.97;99196.38;1762308;79;21176;-74
2021/03/27 13:03:37;;;;;;;33.70;23.65;;;;;;;13.51;53.06;99201.19;1666779;84;21225;-73
2021/03/27 13:06:38;;;;;;;37.67;24.63;;;;;;;13.41;53.17;99200.13;1669737;84;21292;-69
2021/03/27 13:09:19;;;;;;;37.17;24.32;;;;;;;13.33;53.32;99186.68;1793517;78;22431;-69
2021/03/27 13:12:11;;;;;;;35.30;24.77;;;;;;;13.25;53.43;99183.70;1764331;80;21061;-69
2021/03/27 13:15:13;;;;;;;37.95;24.45;;;;;;;13.27;53.60;99185.31;1766149;78;21396;-70
2021/03/27 13:18:15;;;;;;;38.85;26.02;;;;;;;13.49;53.84;99180.77;1832455;77;22733;-70
2021/03/27 13:20:50;;;;;;;30.95;23.02;;;;;;;13.48;53.72;99196.16;1797749;78;21759;-70